Time;durP1;ratioP1;P1;durP2;ratioP2;P2;SDS_P1;SDS_P2;PMS_P1;PMS_P2;Temp;Humidity;BMP_temperature;BMP_pressure;BME280_temperature;BME280_humidity;BME280_pressure;Samples;Min_cycle;Max_cycle;Signal;HPM_P1;HPM_P2
2023/05/21 00:01:15;;;;;;;24.23;13.73;;;17.30;79.70;;;;;;5021950;28;20245;-76
2023/05/21 00:03:44;;;;;;;24.00;14.47;;;17.20;80.00;;;;;;5018046;28;20190;-76
2023/05/21 00:06:12;;;;;;;24.70;15.33;;;17.20;80.30;;;;;;5018864;28;20465;-75
2023/05/21 00:08:37;;;;;;;24.63;13.87;;;17.20;80.20;;;;;;5010872;28;20939;-77
2023/05/21 00:11:03;;;;;;;24.07;13.93;;;17.10;80.30;;;;;;5009521;28;20448;-75
2023/05/21 00:13:29;;;;;;;25.00;16.10;;;17.20;80.50;;;;;;5015396;28;20207;-77
2023/05/21 00:15:54;;;;;;;22.90;13.77;;;17.20;80.50;;;;;;5024310;28;20181;-76
2023/05/21 00:18:21;;;;;;;23.20;14.00;;;17.10;80.60;;;;;;5013907;28;20194;-76
2023/05/21 00:20:46;;;;;;;22.20;14.30;;;17.10;80.60;;;;;;5021587;28;20288;-77
2023/05/21 00:23:12;;;;;;;25.20;15.53;;;17.10;80.60;;;;;;5032224;28;20497;-76
2023/05/21 00:25:38;;;;;;;26.03;15.67;;;17.10;80.60;;;;;;5031950;28;20220;-77
2023/05/21 00:28:03;;;;;;;26.43;14.30;;;17.10;80.90;;;;;;5021974;28;20190;-76
2023/05/21 00:30:29;;;;;;;22.30;15.20;;;17.00;81.10;;;;;;5020697;28;20713;-77
2023/05/21 00:32:57;;;;;;;24.60;14.67;;;17.10;81.10;;;;;;5021152;28;20207;-77
2023/05/21 00:35:23;;;;;;;27.03;16.03;;;17.00;81.10;;;;;;5022176;28;20196;-77
2023/05/21 00:37:48;;;;;;;24.60;15.70;;;17.00;81.20;;;;;;5030755;28;20457;-76
2023/05/21 00:40:15;;;;;;;25.67;15.10;;;16.90;81.50;;;;;;5033284;28;20182;-76
2023/05/21 00:42:41;;;;;;;23.27;14.47;;;16.90;81.70;;;;;;5041128;28;20182;-76
2023/05/21 00:45:07;;;;;;;30.10;16.30;;;16.90;81.70;;;;;;5031769;28;20516;-77
2023/05/21 00:47:34;;;;;;;29.00;16.10;;;16.90;81.80;;;;;;5027040;28;20471;-76
2023/05/21 00:50:03;;;;;;;25.13;15.30;;;16.80;81.90;;;;;;5033401;28;20485;-76
2023/05/21 00:52:29;;;;;;;29.43;15.67;;;16.80;81.80;;;;;;5033032;28;20431;-76
2023/05/21 00:54:54;;;;;;;27.67;15.70;;;16.80;81.90;;;;;;5031047;28;20504;-74
2023/05/21 00:57:24;;;;;;;28.20;15.50;;;16.80;82.10;;;;;;5018109;28;20245;-75
2023/05/21 00:59:51;;;;;;;29.47;15.17;;;16.80;82.40;;;;;;5028589;28;20182;-74
2023/05/21 01:02:17;;;;;;;26.17;14.90;;;16.70;82.40;;;;;;5028638;28;20523;-75
2023/05/21 01:04:46;;;;;;;22.57;14.03;;;16.70;82.70;;;;;;5033249;28;20503;-75
2023/05/21 01:07:13;;;;;;;25.33;14.80;;;16.70;82.70;;;;;;5024837;28;20459;-74
2023/05/21 01:09:40;;;;;;;27.50;15.50;;;16.80;82.70;;;;;;5029583;28;20426;-75
2023/05/21 01:12:07;;;;;;;26.60;15.63;;;16.80;82.40;;;;;;5018036;28;20520;-74
2023/05/21 01:14:34;;;;;;;26.67;16.27;;;16.80;82.40;;;;;;5019807;28;20456;-75
2023/05/21 01:17:01;;;;;;;26.87;16.77;;;16.70;82.80;;;;;;5015320;28;20466;-75
2023/05/21 01:19:27;;;;;;;26.83;16.10;;;16.70;82.80;;;;;;5016539;28;20935;-75
2023/05/21 01:21:59;;;;;;;30.20;17.03;;;16.70;83.00;;;;;;5017296;28;20498;-74
2023/05/21 01:24:25;;;;;;;25.93;14.80;;;16.70;83.00;;;;;;5019836;28;20516;-74
2023/05/21 01:26:51;;;;;;;23.40;15.13;;;16.60;83.10;;;;;;5008883;28;20539;-74
2023/05/21 01:29:16;;;;;;;27.93;15.57;;;16.70;83.10;;;;;;5024701;28;20231;-74
2023/05/21 01:32:03;;;;;;;27.10;16.30;;;16.60;83.10;;;;;;5012819;28;20473;-74
2023/05/21 01:34:54;;;;;;;27.67;16.37;;;16.50;83.40;;;;;;5020068;28;20197;-74
2023/05/21 01:37:23;;;;;;;30.43;15.73;;;16.50;83.60;;;;;;5003463;28;20874;-74
2023/05/21 01:39:55;;;;;;;24.57;16.40;;;16.50;83.60;;;;;;5017695;28;20423;-74
2023/05/21 01:42:23;;;;;;;27.70;15.20;;;16.50;83.60;;;;;;5016414;28;20482;-74
2023/05/21 01:44:54;;;;;;;27.17;15.90;;;16.50;83.70;;;;;;5019456;28;20777;-74
2023/05/21 01:47:22;;;;;;;26.67;16.20;;;16.50;83.70;;;;;;5013015;28;20482;-76
2023/05/21 01:49:49;;;;;;;31.80;17.10;;;16.40;84.00;;;;;;5029423;28;20428;-77
2023/05/21 01:52:15;;;;;;;31.90;17.57;;;16.40;84.00;;;;;;5022806;28;20427;-76
2023/05/21 01:54:40;;;;;;;28.17;15.70;;;16.40;84.00;;;;;;5025950;28;20416;-74
2023/05/21 01:57:06;;;;;;;28.50;15.23;;;16.40;84.10;;;;;;5008393;28;20216;-75
2023/05/21 01:59:32;;;;;;;32.70;17.10;;;16.40;84.10;;;;;;5014112;28;20186;-75
2023/05/21 02:01:57;;;;;;;29.33;17.10;;;16.40;84.10;;;;;;5023605;28;20191;-73
2023/05/21 02:04:23;;;;;;;26.60;15.80;;;16.30;84.30;;;;;;5018981;28;20194;-74
2023/05/21 02:06:48;;;;;;;29.40;17.07;;;16.40;84.30;;;;;;5012218;28;20220;-76
2023/05/21 02:09:14;;;;;;;26.03;16.40;;;16.30;84.10;;;;;;5015105;28;20209;-74
2023/05/21 02:11:40;;;;;;;28.53;17.00;;;16.30;84.60;;;;;;5018852;28;20208;-75
2023/05/21 02:14:06;;;;;;;33.07;18.20;;;16.30;84.60;;;;;;5012660;28;20196;-75
2023/05/21 02:16:32;;;;;;;32.53;17.93;;;16.20;84.60;;;;;;5012059;28;20206;-75
2023/05/21 02:18:59;;;;;;;32.40;18.00;;;16.20;84.90;;;;;;5012052;28;20456;-77
2023/05/21 02:21:25;;;;;;;34.77;17.37;;;16.10;85.00;;;;;;5013955;28;20185;-74
2023/05/21 02:23:50;;;;;;;30.60;16.70;;;16.10;85.20;;;;;;5013940;28;20420;-75
2023/05/21 02:26:16;;;;;;;31.37;18.60;;;16.10;85.50;;;;;;5012009;28;20562;-75
2023/05/21 02:28:43;;;;;;;31.27;16.77;;;16.10;85.50;;;;;;5036790;28;20222;-76
2023/05/21 02:31:08;;;;;;;30.23;16.77;;;16.10;85.50;;;;;;5037055;28;20653;-77
2023/05/21 02:33:34;;;;;;;33.43;17.17;;;16.10;85.50;;;;;;5031232;28;20428;-75
2023/05/21 02:35:59;;;;;;;30.10;18.30;;;16.10;85.30;;;;;;5030667;28;20198;-76
2023/05/21 02:38:25;;;;;;;29.47;16.60;;;16.10;85.30;;;;;;5046874;28;20205;-76
2023/05/21 02:40:51;;;;;;;33.90;18.60;;;16.10;85.30;;;;;;5032999;28;20189;-77
2023/05/21 02:43:17;;;;;;;38.20;19.10;;;16.10;85.30;;;;;;5030237;28;20181;-75
2023/05/21 02:45:43;;;;;;;37.47;19.83;;;16.10;85.30;;;;;;5025742;28;20544;-77
2023/05/21 02:48:08;;;;;;;31.60;18.13;;;16.10;85.20;;;;;;5014714;28;20198;-76
2023/05/21 02:50:34;;;;;;;29.03;16.37;;;16.00;85.30;;;;;;5024296;28;20293;-75
2023/05/21 02:53:00;;;;;;;34.63;18.50;;;16.00;85.50;;;;;;5016678;28;20553;-75
2023/05/21 02:55:25;;;;;;;26.47;16.83;;;16.00;85.50;;;;;;5016376;28;20205;-73
2023/05/21 02:57:51;;;;;;;32.17;17.23;;;16.00;85.50;;;;;;5008952;28;20565;-75
2023/05/21 03:00:16;;;;;;;30.10;19.30;;;16.00;85.50;;;;;;5014099;28;20188;-74
2023/05/21 03:02:42;;;;;;;33.70;18.20;;;16.00;85.60;;;;;;5018799;28;20575;-75
2023/05/21 03:05:08;;;;;;;34.50;18.80;;;15.90;85.70;;;;;;5010533;28;20197;-75
2023/05/21 03:07:33;;;;;;;29.30;17.43;;;15.90;85.90;;;;;;5009115;28;20221;-74
2023/05/21 03:09:59;;;;;;;31.23;17.60;;;15.90;86.00;;;;;;5018562;28;20680;-75
2023/05/21 03:12:25;;;;;;;34.17;20.47;;;15.90;86.00;;;;;;5023107;28;20548;-74
2023/05/21 03:14:51;;;;;;;33.20;18.57;;;15.80;86.00;;;;;;5022924;28;20676;-74
2023/05/21 03:17:17;;;;;;;35.43;19.90;;;15.80;86.30;;;;;;5013532;28;20719;-75
2023/05/21 03:19:43;;;;;;;35.67;19.17;;;15.70;86.30;;;;;;5017661;28;20430;-75
2023/05/21 03:22:10;;;;;;;30.50;17.83;;;15.60;86.80;;;;;;5015088;28;20516;-74
2023/05/21 03:24:40;;;;;;;31.00;18.63;;;15.60;86.90;;;;;;5012717;28;20416;-76
2023/05/21 03:27:06;;;;;;;35.30;18.63;;;15.60;86.90;;;;;;5008248;28;20449;-76
2023/05/21 03:29:32;;;;;;;35.10;19.30;;;15.60;86.90;;;;;;5012182;28;20421;-75
2023/05/21 03:31:58;;;;;;;33.13;18.00;;;15.60;86.90;;;;;;5011378;28;20216;-75
2023/05/21 03:34:23;;;;;;;30.60;18.50;;;15.60;87.00;;;;;;5016597;28;20419;-76
2023/05/21 03:36:49;;;;;;;34.67;19.90;;;15.60;87.10;;;;;;5010168;28;20321;-75
2023/05/21 03:39:15;;;;;;;34.30;19.20;;;15.60;87.30;;;;;;5013047;28;20276;-75
2023/05/21 03:41:41;;;;;;;34.73;19.10;;;15.50;87.10;;;;;;5017654;28;20484;-75
2023/05/21 03:44:07;;;;;;;35.20;19.70;;;15.50;87.40;;;;;;5012526;28;20217;-75
2023/05/21 03:46:33;;;;;;;34.70;20.00;;;15.50;87.40;;;;;;5011680;28;21149;-76
2023/05/21 03:48:58;;;;;;;33.60;17.50;;;15.50;87.40;;;;;;5012898;28;20427;-76
2023/05/21 03:51:24;;;;;;;34.37;18.77;;;15.50;87.40;;;;;;5014946;28;20297;-75
2023/05/21 03:53:50;;;;;;;32.80;18.53;;;15.50;87.60;;;;;;5010581;28;20188;-74
2023/05/21 03:56:16;;;;;;;38.03;20.80;;;15.50;87.60;;;;;;5013193;28;20468;-77
2023/05/21 03:58:42;;;;;;;32.40;18.47;;;15.50;87.40;;;;;;5010540;28;20432;-73
2023/05/21 04:01:07;;;;;;;31.90;18.97;;;15.50;87.40;;;;;;5020914;28;20510;-75
2023/05/21 04:03:34;;;;;;;32.00;17.30;;;15.50;87.40;;;;;;5018011;28;20242;-74
2023/05/21 04:06:00;;;;;;;34.60;19.57;;;15.50;87.40;;;;;;5018993;28;20208;-76
2023/05/21 04:08:26;;;;;;;38.07;19.53;;;15.50;87.30;;;;;;5011865;28;20504;-75
2023/05/21 04:10:51;;;;;;;33.97;19.30;;;15.50;87.30;;;;;;5022366;28;20547;-76
2023/05/21 04:13:17;;;;;;;34.37;20.33;;;15.50;87.60;;;;;;5027104;28;20286;-75
2023/05/21 04:15:45;;;;;;;34.93;19.03;;;15.50;87.40;;;;;;5022522;28;20555;-74
2023/05/21 04:18:16;;;;;;;32.13;18.67;;;15.40;87.60;;;;;;5021938;28;20196;-76
2023/05/21 04:20:42;;;;;;;33.10;18.10;;;15.50;87.70;;;;;;5019311;28;20909;-76
2023/05/21 04:23:09;;;;;;;32.47;19.87;;;15.50;87.60;;;;;;5020185;28;20461;-75
2023/05/21 04:25:34;;;;;;;33.23;19.73;;;15.50;87.40;;;;;;5014186;28;20503;-74
2023/05/21 04:28:00;;;;;;;31.73;19.33;;;15.60;87.60;;;;;;5017559;28;20494;-76
2023/05/21 04:30:26;;;;;;;33.53;19.10;;;15.50;87.30;;;;;;5014059;28;20198;-76
2023/05/21 04:32:53;;;;;;;43.00;20.13;;;15.50;87.40;;;;;;5019315;28;20448;-74
2023/05/21 04:35:19;;;;;;;29.53;17.47;;;15.60;87.30;;;;;;5014550;28;20353;-75
2023/05/21 04:37:44;;;;;;;34.83;19.43;;;15.60;87.10;;;;;;5011629;28;20529;-75
2023/05/21 04:40:17;;;;;;;39.57;19.73;;;15.60;87.10;;;;;;5015780;28;20212;-74
2023/05/21 04:42:47;;;;;;;37.80;18.43;;;15.60;87.10;;;;;;5010275;28;20277;-74
2023/05/21 04:45:12;;;;;;;35.47;18.30;;;15.70;87.10;;;;;;5012928;28;20516;-76
2023/05/21 04:47:38;;;;;;;31.40;18.40;;;15.70;87.00;;;;;;5007968;28;20464;-75
2023/05/21 04:50:04;;;;;;;34.27;18.73;;;15.80;86.90;;;;;;5016608;28;20217;-76
2023/05/21 04:52:30;;;;;;;34.10;18.57;;;15.80;86.80;;;;;;5014963;28;20189;-75
2023/05/21 04:54:56;;;;;;;35.10;19.30;;;15.80;86.50;;;;;;5017043;28;20569;-75
2023/05/21 04:57:23;;;;;;;34.30;18.60;;;15.90;86.20;;;;;;5014404;28;20681;-76
2023/05/21 04:59:49;;;;;;;30.33;18.23;;;15.90;86.00;;;;;;5011564;28;20431;-74
2023/05/21 05:02:15;;;;;;;33.70;18.50;;;15.90;86.00;;;;;;5008042;28;20459;-76
2023/05/21 05:04:42;;;;;;;34.77;20.30;;;15.90;86.00;;;;;;5016026;28;20186;-76
2023/05/21 05:07:08;;;;;;;41.00;21.83;;;16.00;85.70;;;;;;5007403;28;20210;-76
2023/05/21 05:09:34;;;;;;;35.93;19.90;;;16.00;85.60;;;;;;5014173;28;20448;-77
2023/05/21 05:12:00;;;;;;;29.97;17.40;;;16.00;85.60;;;;;;5014822;28;20292;-77
2023/05/21 05:14:26;;;;;;;34.53;19.43;;;16.00;85.60;;;;;;5021320;28;20200;-75
2023/05/21 05:16:52;;;;;;;35.17;19.73;;;16.00;85.90;;;;;;5011870;28;20463;-75
2023/05/21 05:19:18;;;;;;;35.17;19.00;;;16.10;86.00;;;;;;5007104;28;20248;-77
2023/05/21 05:21:44;;;;;;;33.50;16.50;;;16.20;85.70;;;;;;5009118;28;20434;-74
2023/05/21 05:24:10;;;;;;;34.90;19.63;;;16.20;85.50;;;;;;5017588;28;20420;-76
2023/05/21 05:26:35;;;;;;;34.47;20.33;;;16.30;84.90;;;;;;5012852;28;20206;-74
2023/05/21 05:29:01;;;;;;;34.33;18.77;;;16.30;85.00;;;;;;5013524;28;20227;-76
2023/05/21 05:31:26;;;;;;;31.10;18.40;;;16.40;85.00;;;;;;5013448;28;20267;-76
2023/05/21 05:33:52;;;;;;;30.60;19.07;;;16.40;84.70;;;;;;5010956;28;20195;-76
2023/05/21 05:36:17;;;;;;;31.77;18.03;;;16.40;84.40;;;;;;5010593;28;20206;-76
2023/05/21 05:38:43;;;;;;;33.30;18.60;;;16.50;84.40;;;;;;5018062;28;20649;-75
2023/05/21 05:41:08;;;;;;;32.20;18.50;;;16.60;84.40;;;;;;5011646;28;20648;-74
2023/05/21 05:43:34;;;;;;;32.97;18.80;;;16.60;84.30;;;;;;5009295;28;20644;-77
2023/05/21 05:46:00;;;;;;;33.40;19.33;;;16.40;84.00;;;;;;5011385;28;20228;-75
2023/05/21 05:48:25;;;;;;;33.00;18.50;;;16.60;83.60;;;;;;5008456;28;20182;-75
2023/05/21 05:50:53;;;;;;;31.23;18.50;;;16.60;83.60;;;;;;5014117;28;20559;-75
2023/05/21 05:53:19;;;;;;;29.80;18.60;;;16.80;83.10;;;;;;5018608;28;20186;-78
2023/05/21 05:55:45;;;;;;;32.13;18.13;;;16.90;82.70;;;;;;5011916;28;20427;-77
2023/05/21 05:58:10;;;;;;;38.13;20.93;;;17.00;82.20;;;;;;5012628;28;20420;-77
2023/05/21 06:00:36;;;;;;;36.10;20.30;;;17.10;81.10;;;;;;5018801;28;20195;-75
2023/05/21 06:03:01;;;;;;;36.70;18.70;;;17.10;80.90;;;;;;5019266;28;20197;-76
2023/05/21 06:05:27;;;;;;;38.00;21.93;;;17.00;81.10;;;;;;5017139;28;20185;-76
2023/05/21 06:07:52;;;;;;;39.73;21.70;;;17.00;81.10;;;;;;5011250;28;20720;-75
2023/05/21 06:10:19;;;;;;;31.07;18.13;;;16.60;82.10;;;;;;5014974;28;20210;-76
2023/05/21 06:12:45;;;;;;;36.43;19.23;;;16.80;82.10;;;;;;5013203;28;20911;-75
2023/05/21 06:15:10;;;;;;;36.87;19.10;;;16.90;81.70;;;;;;5011323;28;20443;-78
2023/05/21 06:17:36;;;;;;;36.07;20.77;;;16.90;81.70;;;;;;5008132;28;20285;-76
2023/05/21 06:20:02;;;;;;;33.70;19.70;;;16.90;81.80;;;;;;5012497;28;20321;-76
2023/05/21 06:22:28;;;;;;;38.20;19.23;;;17.00;81.80;;;;;;5012717;28;20671;-74
2023/05/21 06:24:54;;;;;;;33.97;20.20;;;17.00;81.70;;;;;;5012027;28;20409;-76
2023/05/21 06:27:19;;;;;;;32.80;19.60;;;17.10;81.90;;;;;;5012188;28;20285;-75
2023/05/21 06:29:45;;;;;;;36.20;20.30;;;17.20;81.40;;;;;;5011826;28;20181;-77
2023/05/21 06:32:10;;;;;;;32.50;18.13;;;17.00;80.90;;;;;;5016134;28;20217;-75
2023/05/21 06:34:36;;;;;;;35.17;17.40;;;17.20;81.10;;;;;;5026865;28;20181;-75
2023/05/21 06:37:02;;;;;;;33.90;20.87;;;17.50;79.60;;;;;;5011248;28;20206;-74
2023/05/21 06:39:27;;;;;;;33.43;18.20;;;17.50;79.30;;;;;;5021096;28;20196;-75
2023/05/21 06:41:53;;;;;;;32.70;19.33;;;17.40;79.90;;;;;;5014998;28;20194;-76
2023/05/21 06:44:19;;;;;;;34.10;19.60;;;17.50;79.60;;;;;;5017943;28;20243;-76
2023/05/21 06:46:44;;;;;;;34.30;20.50;;;17.50;79.20;;;;;;5003417;28;20214;-74
2023/05/21 06:49:12;;;;;;;35.70;19.27;;;17.50;79.00;;;;;;5011045;28;20847;-75
2023/05/21 06:51:37;;;;;;;35.50;19.40;;;17.50;79.00;;;;;;5018079;28;20316;-75
2023/05/21 06:54:03;;;;;;;34.17;18.77;;;17.60;78.90;;;;;;5015842;28;20503;-77
2023/05/21 06:56:29;;;;;;;31.27;18.80;;;17.70;78.70;;;;;;5008818;28;20233;-75
2023/05/21 06:58:55;;;;;;;33.80;17.97;;;17.60;78.70;;;;;;5009912;28;20654;-75
2023/05/21 07:01:23;;;;;;;34.00;18.23;;;17.50;79.00;;;;;;5015295;28;21635;-76
2023/05/21 07:03:49;;;;;;;30.80;17.67;;;17.50;79.20;;;;;;5019065;28;20193;-74
2023/05/21 07:06:15;;;;;;;34.70;20.90;;;17.60;79.00;;;;;;5023645;28;20463;-75
2023/05/21 07:08:41;;;;;;;33.10;19.00;;;17.50;78.90;;;;;;5017562;28;20190;-75
2023/05/21 07:11:06;;;;;;;36.63;19.80;;;17.30;79.90;;;;;;5023302;28;20575;-75
2023/05/21 07:13:35;;;;;;;31.57;19.47;;;17.20;80.00;;;;;;5022337;28;20302;-74
2023/05/21 07:16:00;;;;;;;35.13;20.20;;;17.10;80.30;;;;;;5013219;28;20259;-76
2023/05/21 07:18:26;;;;;;;32.63;18.83;;;17.10;80.30;;;;;;5009828;28;20449;-77
2023/05/21 07:20:52;;;;;;;33.00;20.97;;;17.20;80.60;;;;;;5011200;28;20182;-75
2023/05/21 07:23:18;;;;;;;37.37;21.60;;;17.30;80.30;;;;;;5014222;28;20799;-75
2023/05/21 07:25:43;;;;;;;38.17;18.97;;;17.40;80.00;;;;;;5017642;28;20436;-73
2023/05/21 07:28:09;;;;;;;31.83;18.20;;;17.60;79.20;;;;;;5012466;28;20587;-77
2023/05/21 07:30:35;;;;;;;30.10;17.83;;;17.70;78.40;;;;;;5013991;28;20273;-76
2023/05/21 07:33:00;;;;;;;32.33;17.70;;;17.90;78.10;;;;;;5027124;28;20319;-76
2023/05/21 07:35:26;;;;;;;33.87;19.70;;;18.00;77.70;;;;;;5014513;28;20188;-74
2023/05/21 07:37:51;;;;;;;33.70;19.73;;;18.10;77.10;;;;;;5012180;28;20233;-77
2023/05/21 07:40:17;;;;;;;30.47;18.43;;;17.90;77.00;;;;;;5014652;28;20208;-76
2023/05/21 07:42:43;;;;;;;32.27;19.20;;;17.60;78.00;;;;;;5018521;28;20724;-75
2023/05/21 07:45:08;;;;;;;35.00;20.37;;;17.60;78.00;;;;;;5013580;28;20574;-74
2023/05/21 07:47:34;;;;;;;33.10;17.87;;;17.60;78.30;;;;;;5007646;28;20287;-76
2023/05/21 07:50:00;;;;;;;29.57;16.77;;;17.70;78.30;;;;;;5016741;28;20186;-75
2023/05/21 07:52:25;;;;;;;35.03;19.37;;;18.00;77.60;;;;;;5022653;28;20654;-75
2023/05/21 07:54:51;;;;;;;28.07;17.73;;;17.90;76.80;;;;;;5015146;28;20198;-74
2023/05/21 07:57:16;;;;;;;31.83;18.73;;;17.80;77.00;;;;;;5016334;28;20207;-75
2023/05/21 07:59:42;;;;;;;43.73;22.80;;;17.60;77.30;;;;;;5019080;28;20212;-73
2023/05/21 08:02:07;;;;;;;33.53;20.50;;;17.60;77.80;;;;;;5017818;28;20214;-75
2023/05/21 08:04:33;;;;;;;33.70;18.63;;;17.90;77.70;;;;;;5027562;28;20323;-75
2023/05/21 08:06:58;;;;;;;35.37;20.47;;;18.30;76.50;;;;;;5029518;28;20233;-75
2023/05/21 08:09:24;;;;;;;35.50;20.27;;;18.40;75.20;;;;;;5025038;28;20199;-75
2023/05/21 08:11:50;;;;;;;32.87;19.87;;;18.30;74.90;;;;;;5035249;28;20257;-74
2023/05/21 08:14:16;;;;;;;31.80;18.30;;;18.30;75.20;;;;;;5034948;28;20432;-74
2023/05/21 08:16:42;;;;;;;29.50;18.63;;;18.40;75.10;;;;;;5016043;28;20900;-75
2023/05/21 08:19:07;;;;;;;29.23;16.53;;;18.60;73.60;;;;;;5031967;28;20231;-74
2023/05/21 08:21:33;;;;;;;23.40;15.97;;;18.80;73.00;;;;;;5015674;28;20434;-74
2023/05/21 08:23:59;;;;;;;30.50;17.63;;;18.90;72.40;;;;;;5012274;28;20207;-74
2023/05/21 08:26:25;;;;;;;26.50;17.13;;;18.60;73.00;;;;;;5011928;28;20215;-75
2023/05/21 08:28:51;;;;;;;31.90;17.57;;;18.70;73.60;;;;;;5009388;28;20204;-75
2023/05/21 08:31:20;;;;;;;27.80;17.50;;;18.90;72.90;;;;;;5018533;28;20463;-75
2023/05/21 08:33:55;;;;;;;27.50;17.57;;;19.00;72.90;;;;;;5015173;28;20188;-74
2023/05/21 08:36:21;;;;;;;27.77;17.70;;;19.00;72.00;;;;;;5008898;28;20572;-75
2023/05/21 08:38:47;;;;;;;28.27;16.37;;;19.20;72.10;;;;;;5014136;28;20432;-74
2023/05/21 08:41:13;;;;;;;23.53;15.10;;;19.40;71.80;;;;;;5011953;28;20966;-74
2023/05/21 08:43:39;;;;;;;23.43;15.23;;;19.50;71.00;;;;;;5017926;28;20190;-74
2023/05/21 08:46:07;;;;;;;24.73;15.17;;;19.70;70.20;;;;;;5009557;28;20460;-74
2023/05/21 08:48:35;;;;;;;26.13;17.03;;;19.60;69.90;;;;;;5012617;28;20269;-76
2023/05/21 08:51:01;;;;;;;29.40;16.73;;;19.80;69.90;;;;;;5019702;28;20476;-75
2023/05/21 08:53:27;;;;;;;31.33;16.20;;;19.70;69.40;;;;;;5007225;28;20436;-75
2023/05/21 08:55:57;;;;;;;26.90;16.77;;;19.60;69.80;;;;;;5016446;28;20523;-77
2023/05/21 08:58:23;;;;;;;31.97;18.20;;;19.40;70.20;;;;;;5017900;28;20826;-76
2023/05/21 09:00:48;;;;;;;26.37;16.77;;;19.20;70.20;;;;;;5014418;28;20432;-76
2023/05/21 09:03:14;;;;;;;24.27;15.80;;;19.10;70.80;;;;;;5026469;28;20929;-77
2023/05/21 09:05:41;;;;;;;26.17;14.83;;;19.40;70.40;;;;;;5019330;28;20254;-76
2023/05/21 09:08:18;;;;;;;25.27;15.93;;;19.40;70.20;;;;;;5012720;28;20456;-77
2023/05/21 09:10:51;;;;;;;23.63;15.57;;;19.60;69.70;;;;;;5013060;28;20861;-75
2023/05/21 09:13:17;;;;;;;26.53;15.60;;;19.80;69.10;;;;;;5023042;28;20434;-78
2023/05/21 09:15:44;;;;;;;25.20;16.17;;;20.00;69.10;;;;;;5016172;28;21288;-76
2023/05/21 09:18:10;;;;;;;22.60;14.40;;;19.80;68.90;;;;;;5019335;28;20460;-76
2023/05/21 09:20:36;;;;;;;27.27;15.97;;;20.00;69.10;;;;;;5019378;28;20772;-76
2023/05/21 09:23:03;;;;;;;25.97;16.10;;;19.90;68.60;;;;;;5014903;28;20193;-76
2023/05/21 09:25:29;;;;;;;27.50;15.97;;;19.80;69.10;;;;;;5015685;28;20269;-76
2023/05/21 09:27:58;;;;;;;24.60;14.50;;;19.80;69.10;;;;;;5004323;28;20527;-76
2023/05/21 09:30:24;;;;;;;24.73;15.27;;;19.80;68.60;;;;;;5018110;28;20241;-75
2023/05/21 09:33:00;;;;;;;27.20;15.73;;;20.00;68.20;;;;;;5015592;28;20427;-76
2023/05/21 09:35:26;;;;;;;23.53;14.10;;;19.80;68.00;;;;;;5013037;28;20504;-79
2023/05/21 09:37:52;;;;;;;21.57;13.33;;;20.00;68.50;;;;;;5014906;28;20651;-77
2023/05/21 09:40:22;;;;;;;23.33;13.60;;;20.10;67.60;;;;;;5014115;28;20490;-76
2023/05/21 09:42:52;;;;;;;21.43;13.40;;;20.00;67.30;;;;;;5017156;28;20786;-75
2023/05/21 09:45:25;;;;;;;21.50;13.57;;;20.20;67.20;;;;;;5008704;28;20500;-75
2023/05/21 09:47:52;;;;;;;19.53;13.53;;;20.10;66.60;;;;;;5008332;28;20516;-76
2023/05/21 09:50:19;;;;;;;18.17;12.20;;;20.20;66.40;;;;;;5022086;28;21089;-75
2023/05/21 09:52:44;;;;;;;19.10;13.47;;;20.40;66.30;;;;;;5014242;28;20423;-76
2023/05/21 09:55:11;;;;;;;26.60;14.33;;;20.40;65.80;;;;;;5012053;28;20422;-77
2023/05/21 09:57:42;;;;;;;19.90;11.87;;;20.40;66.60;;;;;;5009835;28;20199;-76
2023/05/21 10:00:10;;;;;;;24.03;12.50;;;20.80;65.60;;;;;;5008500;28;20502;-75
2023/05/21 10:02:38;;;;;;;22.27;11.83;;;21.00;65.10;;;;;;5014152;28;20434;-76
2023/05/21 10:05:09;;;;;;;19.70;12.87;;;21.50;65.00;;;;;;5009446;28;20424;-75
2023/05/21 10:07:35;;;;;;;16.10;11.70;;;22.00;64.40;;;;;;5005725;28;20435;-76
2023/05/21 10:10:03;;;;;;;15.73;11.37;;;22.40;63.50;;;;;;5015967;28;20460;-76
2023/05/21 10:12:29;;;;;;;18.03;12.23;;;22.80;63.10;;;;;;5016169;28;20419;-77
2023/05/21 10:15:03;;;;;;;21.40;12.17;;;22.60;62.60;;;;;;5012751;28;20419;-77
2023/05/21 10:17:29;;;;;;;18.13;12.30;;;22.30;63.80;;;;;;5012435;28;20493;-76
2023/05/21 10:19:56;;;;;;;17.97;11.60;;;22.40;63.40;;;;;;5011897;28;20461;-76
2023/05/21 10:22:25;;;;;;;17.00;11.40;;;22.60;63.50;;;;;;5011558;28;20418;-76
2023/05/21 10:24:51;;;;;;;19.00;11.20;;;22.80;62.50;;;;;;5003969;28;20423;-75
2023/05/21 10:27:18;;;;;;;17.00;11.50;;;22.80;62.50;;;;;;5009070;28;20463;-75
2023/05/21 10:29:45;;;;;;;16.87;11.70;;;22.70;62.80;;;;;;5009588;28;20430;-74
2023/05/21 10:32:15;;;;;;;20.23;11.93;;;22.80;62.50;;;;;;5008553;28;21257;-77
2023/05/21 10:34:42;;;;;;;20.70;13.37;;;23.00;61.90;;;;;;5013304;28;20452;-76
2023/05/21 10:37:11;;;;;;;21.00;14.20;;;23.00;61.70;;;;;;5012141;28;20459;-77
2023/05/21 10:39:38;;;;;;;19.00;12.40;;;22.30;63.10;;;;;;5012908;28;20890;-77
2023/05/21 10:42:17;;;;;;;19.40;13.27;;;21.90;65.10;;;;;;5005312;28;20427;-75
2023/05/21 10:45:04;;;;;;;18.77;12.10;;;21.50;65.70;;;;;;5012756;28;20946;-77
2023/05/21 10:47:37;;;;;;;20.20;12.73;;;21.60;65.70;;;;;;5008261;28;20542;-75
2023/05/21 10:50:30;;;;;;;19.30;12.27;;;21.70;65.10;;;;;;5007709;28;21224;-74
2023/05/21 10:53:09;;;;;;;19.23;13.13;;;21.70;65.30;;;;;;5011285;28;20429;-76
2023/05/21 10:55:37;;;;;;;23.10;13.30;;;21.70;65.00;;;;;;5007836;28;20429;-75
2023/05/21 10:58:27;;;;;;;21.17;13.00;;;21.70;64.80;;;;;;5012052;28;21266;-75
2023/05/21 11:00:54;;;;;;;19.43;13.00;;;22.00;64.50;;;;;;5011578;28;20926;-75
2023/05/21 11:03:21;;;;;;;19.97;12.60;;;22.20;63.90;;;;;;5012971;28;20432;-75
2023/05/21 11:05:56;;;;;;;23.30;14.43;;;22.40;63.50;;;;;;5011398;28;20430;-78
2023/05/21 11:08:26;;;;;;;19.40;13.23;;;22.10;64.10;;;;;;5006150;28;20518;-74
2023/05/21 11:10:53;;;;;;;20.07;12.37;;;21.90;65.00;;;;;;5011403;28;20499;-76
2023/05/21 11:13:20;;;;;;;21.60;13.27;;;21.80;65.30;;;;;;5009692;28;20439;-75
2023/05/21 11:15:58;;;;;;;20.20;12.53;;;22.20;65.00;;;;;;5011219;28;20505;-76
2023/05/21 11:18:39;;;;;;;18.90;12.23;;;22.60;64.20;;;;;;5006065;28;20456;-78
2023/05/21 11:21:21;;;;;;;14.20;10.60;;;22.30;64.10;;;;;;5008399;28;20422;-76
2023/05/21 11:23:49;;;;;;;18.97;12.67;;;22.60;64.20;;;;;;5008798;28;20426;-76
2023/05/21 11:26:19;;;;;;;19.80;13.07;;;22.50;63.90;;;;;;5012239;28;20466;-76
2023/05/21 11:28:45;;;;;;;15.77;11.60;;;22.50;63.10;;;;;;5008006;28;20934;-75
2023/05/21 11:31:28;;;;;;;19.00;11.80;;;22.50;62.80;;;;;;5006854;28;20465;-75
2023/05/21 11:34:12;;;;;;;19.30;13.57;;;22.50;63.40;;;;;;5012254;28;20898;-75
2023/05/21 11:36:44;;;;;;;17.87;11.37;;;22.60;63.70;;;;;;5004774;28;20558;-75
2023/05/21 11:39:11;;;;;;;15.33;10.30;;;22.30;63.50;;;;;;5001596;28;20416;-75
2023/05/21 11:41:55;;;;;;;18.93;11.67;;;22.80;63.40;;;;;;5011182;28;20545;-75
2023/05/21 11:44:40;;;;;;;21.17;12.40;;;23.40;62.80;;;;;;5012746;28;20428;-77
2023/05/21 11:47:08;;;;;;;16.43;11.80;;;23.60;61.20;;;;;;5008893;28;20460;-76
2023/05/21 11:49:34;;;;;;;20.27;11.60;;;23.20;61.70;;;;;;5007434;28;20427;-74
2023/05/21 11:52:01;;;;;;;19.83;12.70;;;23.20;62.00;;;;;;5012674;28;20982;-75
2023/05/21 11:54:32;;;;;;;18.33;11.07;;;23.10;61.90;;;;;;5009213;28;20587;-74
2023/05/21 11:56:59;;;;;;;16.93;11.47;;;23.30;62.30;;;;;;5008908;28;20460;-78
2023/05/21 11:59:25;;;;;;;15.50;11.00;;;23.40;61.30;;;;;;5018522;28;20504;-76
2023/05/21 12:01:50;;;;;;;16.67;11.17;;;23.80;61.50;;;;;;5014084;28;21010;-78
2023/05/21 12:04:16;;;;;;;17.83;12.47;;;24.30;61.00;;;;;;5013945;28;20617;-76
2023/05/21 12:06:42;;;;;;;19.10;12.33;;;24.00;59.90;;;;;;5014568;28;20257;-80
2023/05/21 12:09:11;;;;;;;15.40;10.00;;;23.60;60.60;;;;;;5014056;28;20553;-75
2023/05/21 12:11:40;;;;;;;14.90;10.00;;;24.00;60.30;;;;;;5009897;28;20237;-75
2023/05/21 12:14:08;;;;;;;29.33;18.40;;;24.40;58.80;;;;;;5014150;28;20455;-76
2023/05/21 12:16:34;;;;;;;17.70;11.70;;;23.80;59.50;;;;;;5014373;28;20457;-77
2023/05/21 12:19:00;;;;;;;16.00;11.60;;;23.30;61.30;;;;;;5019153;28;20874;-76
2023/05/21 12:21:28;;;;;;;14.90;10.57;;;23.40;60.90;;;;;;5023414;28;20420;-76
2023/05/21 12:23:54;;;;;;;16.37;10.17;;;23.70;61.00;;;;;;5020908;28;20428;-74
2023/05/21 12:26:20;;;;;;;18.40;11.67;;;23.90;61.50;;;;;;5009201;28;20509;-75
2023/05/21 12:28:47;;;;;;;17.43;11.87;;;24.20;59.70;;;;;;5015488;28;20941;-74